createdAt,value
2017-09-29T00:00:28.940Z,98.90
2017-09-29T00:02:56.616Z,99.30
2017-09-29T00:05:24.324Z,99.40
2017-09-29T00:07:52.757Z,99.70
2017-09-29T00:10:20.513Z,99.70
2017-09-29T00:12:48.180Z,99.80
2017-09-29T00:15:15.896Z,99.90
2017-09-29T00:17:44.331Z,99.80
2017-09-29T00:20:12.041Z,99.80
2017-09-29T00:22:39.754Z,99.70
2017-09-29T00:25:07.431Z,99.60
2017-09-29T00:27:35.145Z,99.40
2017-09-29T00:30:02.822Z,99.50
2017-09-29T00:32:30.559Z,99.50
2017-09-29T00:34:58.264Z,99.90
2017-09-29T00:37:25.976Z,99.90
2017-09-29T00:39:53.681Z,99.90
2017-09-29T00:42:21.418Z,99.90
2017-09-29T00:44:49.095Z,99.70
2017-09-29T00:47:16.885Z,99.70
2017-09-29T00:49:45.364Z,99.90
2017-09-29T00:52:13.890Z,99.90
2017-09-29T00:54:41.589Z,99.90
2017-09-29T00:57:09.353Z,99.90
2017-09-29T00:59:37.039Z,99.60
2017-09-29T01:02:05.519Z,99.20
2017-09-29T01:04:34.028Z,99.30
2017-09-29T01:07:01.791Z,99.30
2017-09-29T01:09:29.466Z,99.50
2017-09-29T01:11:57.184Z,99.90
2017-09-29T01:14:24.884Z,99.90
2017-09-29T01:16:52.696Z,99.70
2017-09-29T01:19:21.208Z,99.70
2017-09-29T01:21:49.010Z,99.70
2017-09-29T01:24:16.748Z,99.50
2017-09-29T01:26:44.478Z,99.40
2017-09-29T01:29:12.222Z,99.40
2017-09-29T01:31:40.707Z,99.90
2017-09-29T01:34:09.248Z,99.90
2017-09-29T01:36:36.986Z,99.90
2017-09-29T01:39:04.759Z,99.90
2017-09-29T01:41:32.496Z,99.90
2017-09-29T01:44:00.272Z,99.90
2017-09-29T01:46:28.026Z,99.90
2017-09-29T01:48:55.820Z,99.70
2017-09-29T01:51:23.568Z,99.90
2017-09-29T01:53:51.355Z,99.60
2017-09-29T01:56:19.084Z,99.60
2017-09-29T01:58:46.864Z,99.80
2017-09-29T02:01:14.571Z,99.90
2017-09-29T02:03:42.346Z,99.90
2017-09-29T02:06:10.076Z,99.90
2017-09-29T02:08:38.636Z,99.90
2017-09-29T02:11:06.473Z,99.90
2017-09-29T02:13:34.257Z,99.90
2017-09-29T02:16:01.991Z,99.90
2017-09-29T02:18:29.775Z,99.90
2017-09-29T02:20:57.517Z,99.90
2017-09-29T02:23:25.296Z,99.90
2017-09-29T02:25:53.038Z,99.90
2017-09-29T02:28:20.808Z,99.90
2017-09-29T02:30:48.548Z,99.90
2017-09-29T02:33:16.328Z,99.90
2017-09-29T02:35:44.089Z,99.90
2017-09-29T02:38:11.833Z,99.90
2017-09-29T02:40:40.383Z,99.90
2017-09-29T02:43:08.133Z,99.90
2017-09-29T02:45:36.735Z,99.90
2017-09-29T02:48:04.460Z,99.90
2017-09-29T02:50:32.269Z,99.90
2017-09-29T02:52:59.996Z,99.90
2017-09-29T02:55:28.538Z,99.90
2017-09-29T02:57:56.820Z,99.90
2017-09-29T03:00:25.792Z,99.90
2017-09-29T03:02:55.648Z,99.90
2017-09-29T03:05:25.476Z,99.90
2017-09-29T03:07:53.941Z,99.90
2017-09-29T03:10:22.478Z,99.90
2017-09-29T03:12:50.186Z,99.90
2017-09-29T03:15:18.690Z,99.90
2017-09-29T03:17:46.367Z,99.90
2017-09-29T03:20:14.084Z,99.90
2017-09-29T03:22:42.529Z,99.90
2017-09-29T03:25:10.247Z,99.90
2017-09-29T03:27:37.948Z,99.90
2017-09-29T03:30:05.703Z,99.90
2017-09-29T03:32:33.404Z,99.90
2017-09-29T03:35:01.901Z,99.90
2017-09-29T03:37:29.578Z,99.90
2017-09-29T03:39:57.276Z,99.90
2017-09-29T03:42:25.008Z,99.90
2017-09-29T03:44:52.726Z,99.90
2017-09-29T03:47:21.263Z,99.90
2017-09-29T03:49:50.266Z,99.90
2017-09-29T03:52:19.423Z,99.90
2017-09-29T03:54:49.205Z,99.90
2017-09-29T03:57:20.943Z,99.90
2017-09-29T03:59:49.408Z,99.90
2017-09-29T04:02:17.156Z,99.90
2017-09-29T04:04:44.828Z,99.90
2017-09-29T04:07:12.541Z,99.90
2017-09-29T04:09:40.202Z,99.90
2017-09-29T04:12:07.979Z,99.90
2017-09-29T04:14:35.650Z,99.90
2017-09-29T04:17:03.404Z,99.90
2017-09-29T04:19:31.121Z,99.90
2017-09-29T04:21:59.620Z,99.90
2017-09-29T04:24:27.320Z,99.90
2017-09-29T04:26:55.045Z,99.90
2017-09-29T04:29:22.769Z,99.90
2017-09-29T04:31:51.265Z,99.90
2017-09-29T04:34:18.927Z,99.90
2017-09-29T04:36:46.648Z,99.90
2017-09-29T04:39:14.328Z,99.90
2017-09-29T04:41:42.804Z,99.90
2017-09-29T04:44:11.245Z,99.90
2017-09-29T04:46:38.968Z,99.90
2017-09-29T04:49:06.657Z,99.90
2017-09-29T04:51:34.327Z,99.90
2017-09-29T04:54:02.036Z,99.90
2017-09-29T04:56:30.491Z,99.90
2017-09-29T04:58:58.208Z,99.90
2017-09-29T05:01:25.886Z,99.90
2017-09-29T05:03:53.616Z,99.90
2017-09-29T05:06:21.284Z,99.90
2017-09-29T05:08:49.012Z,99.90
2017-09-29T05:11:17.454Z,99.90
2017-09-29T05:13:45.177Z,99.90
2017-09-29T05:16:12.856Z,99.90
2017-09-29T05:18:40.615Z,99.90
2017-09-29T05:21:08.367Z,99.90
2017-09-29T05:23:36.151Z,99.90
2017-09-29T05:26:03.892Z,99.90
2017-09-29T05:28:31.625Z,99.90
2017-09-29T05:30:59.334Z,99.90
2017-09-29T05:33:27.080Z,99.90
2017-09-29T05:35:54.853Z,99.90
2017-09-29T05:38:22.563Z,99.90
2017-09-29T05:40:51.052Z,99.90
2017-09-29T05:43:18.727Z,99.90
2017-09-29T05:45:46.447Z,99.90
2017-09-29T05:48:14.900Z,99.90
2017-09-29T05:50:42.637Z,99.90
2017-09-29T05:53:10.386Z,99.90
2017-09-29T05:55:38.128Z,99.90
2017-09-29T05:58:06.589Z,99.90
2017-09-29T06:00:35.085Z,99.90
2017-09-29T06:03:02.755Z,99.90
2017-09-29T06:05:30.469Z,99.90
2017-09-29T06:07:58.155Z,99.90
2017-09-29T06:10:26.642Z,99.90
2017-09-29T06:12:55.097Z,99.90
2017-09-29T06:15:22.852Z,99.90
2017-09-29T06:17:50.537Z,99.90
2017-09-29T06:20:19.038Z,99.90
2017-09-29T06:22:46.714Z,99.90
2017-09-29T06:25:14.447Z,99.90
2017-09-29T06:27:42.176Z,99.90
2017-09-29T06:30:09.924Z,99.90
2017-09-29T06:32:37.651Z,99.90
2017-09-29T06:35:05.375Z,99.90
2017-09-29T06:37:33.820Z,99.90
2017-09-29T06:40:01.684Z,99.90
2017-09-29T06:42:29.371Z,99.90
2017-09-29T06:44:57.808Z,99.90
2017-09-29T06:47:25.536Z,99.90
2017-09-29T06:49:53.249Z,99.90
2017-09-29T06:52:20.964Z,99.90
2017-09-29T06:54:48.636Z,99.90
2017-09-29T06:57:16.388Z,99.90
2017-09-29T06:59:44.074Z,99.90
2017-09-29T07:02:11.804Z,99.90
2017-09-29T07:04:39.488Z,99.90
2017-09-29T07:07:07.220Z,99.90
2017-09-29T07:09:34.938Z,99.90
2017-09-29T07:12:02.703Z,99.90
2017-09-29T07:14:30.404Z,99.90
2017-09-29T07:16:58.143Z,99.90
2017-09-29T07:19:26.583Z,99.90
2017-09-29T07:21:54.317Z,99.90
2017-09-29T07:24:22.019Z,99.90
2017-09-29T07:26:53.692Z,99.90
2017-09-29T07:29:23.728Z,99.90
2017-09-29T07:31:52.797Z,99.90
2017-09-29T07:34:21.272Z,99.90
2017-09-29T07:36:49.755Z,99.90
2017-09-29T07:39:18.252Z,99.90
2017-09-29T07:41:46.040Z,99.90
2017-09-29T07:44:13.732Z,99.90
2017-09-29T07:46:41.418Z,99.90
2017-09-29T07:49:09.912Z,99.90
2017-09-29T07:51:37.584Z,99.90
2017-09-29T07:54:05.338Z,99.90
2017-09-29T07:56:33.040Z,99.90
2017-09-29T07:59:00.783Z,99.90
2017-09-29T08:01:28.505Z,99.90
2017-09-29T08:03:57.037Z,99.90
2017-09-29T08:06:24.780Z,99.90
2017-09-29T08:08:52.584Z,99.90
2017-09-29T08:11:20.300Z,99.90
2017-09-29T08:13:48.076Z,99.90
2017-09-29T08:16:15.742Z,99.90
2017-09-29T08:18:43.608Z,99.90
2017-09-29T08:21:11.287Z,99.90
2017-09-29T08:23:38.995Z,99.90
2017-09-29T08:26:06.704Z,99.90
2017-09-29T08:28:34.415Z,99.90
2017-09-29T08:31:02.091Z,99.90
2017-09-29T08:33:29.804Z,99.70
2017-09-29T08:35:58.240Z,99.50
2017-09-29T08:38:25.951Z,99.50
2017-09-29T08:40:54.417Z,99.40
2017-09-29T08:43:22.900Z,99.60
2017-09-29T08:45:51.347Z,99.00
2017-09-29T08:48:19.048Z,99.00
2017-09-29T08:50:47.528Z,98.00
2017-09-29T08:53:15.983Z,98.20
2017-09-29T08:55:43.704Z,98.20
2017-09-29T08:58:11.378Z,97.90
2017-09-29T09:00:39.118Z,96.70
2017-09-29T09:03:06.788Z,96.50
2017-09-29T09:05:34.515Z,96.30
2017-09-29T09:08:02.195Z,96.10
2017-09-29T09:10:29.911Z,95.80
2017-09-29T09:12:58.377Z,95.30
2017-09-29T09:15:26.867Z,95.80
2017-09-29T09:17:55.306Z,95.10
2017-09-29T09:20:23.016Z,95.10
2017-09-29T09:22:51.460Z,95.30
2017-09-29T09:25:19.174Z,95.20
2017-09-29T09:27:46.840Z,94.70
2017-09-29T09:30:14.557Z,94.90
2017-09-29T09:32:42.229Z,95.00
2017-09-29T09:35:10.712Z,94.80
2017-09-29T09:37:39.146Z,94.60
2017-09-29T09:40:06.881Z,94.60
2017-09-29T09:42:34.556Z,94.30
2017-09-29T09:45:02.259Z,94.20
2017-09-29T09:47:30.688Z,93.60
2017-09-29T09:49:58.416Z,93.60
2017-09-29T09:52:26.084Z,93.70
2017-09-29T09:54:53.764Z,93.40
2017-09-29T09:57:21.471Z,93.20
2017-09-29T09:59:49.140Z,93.10
2017-09-29T10:02:17.616Z,92.10
2017-09-29T10:04:46.059Z,91.40
2017-09-29T10:07:13.823Z,91.40
2017-09-29T10:09:41.499Z,91.50
2017-09-29T10:12:09.216Z,90.70
2017-09-29T10:14:36.887Z,90.80
2017-09-29T10:17:04.596Z,90.60
2017-09-29T10:19:33.039Z,91.00
2017-09-29T10:22:00.771Z,91.00
2017-09-29T10:24:28.462Z,90.40
2017-09-29T10:26:56.185Z,90.20
2017-09-29T10:29:23.865Z,89.20
2017-09-29T10:31:51.592Z,86.90
2017-09-29T10:34:20.051Z,86.80
2017-09-29T10:36:47.767Z,86.80
2017-09-29T10:39:15.474Z,88.80
2017-09-29T10:41:44.000Z,89.30
2017-09-29T10:44:11.663Z,89.30
2017-09-29T10:46:39.376Z,89.40
2017-09-29T10:49:07.860Z,87.90
2017-09-29T10:51:36.352Z,87.60
2017-09-29T10:54:04.110Z,87.60
2017-09-29T10:56:31.848Z,86.60
2017-09-29T10:58:59.543Z,85.60
2017-09-29T11:01:27.275Z,86.70
2017-09-29T11:03:55.850Z,87.40
2017-09-29T11:06:24.300Z,86.40
2017-09-29T11:08:52.027Z,86.40
2017-09-29T11:11:19.690Z,85.90
2017-09-29T11:13:47.399Z,84.80
2017-09-29T11:16:15.067Z,85.50
2017-09-29T11:18:42.788Z,87.10
2017-09-29T11:21:10.496Z,87.00
2017-09-29T11:23:38.975Z,86.20
2017-09-29T11:26:07.424Z,86.40
2017-09-29T11:28:35.144Z,86.40
2017-09-29T11:31:02.820Z,86.20
2017-09-29T11:33:30.532Z,84.90
2017-09-29T11:35:58.992Z,83.20
2017-09-29T11:38:26.771Z,83.20
2017-09-29T11:40:55.217Z,83.00
2017-09-29T11:43:22.936Z,83.00
2017-09-29T11:45:50.611Z,81.90
2017-09-29T11:48:18.347Z,82.80
2017-09-29T11:50:46.023Z,84.40
2017-09-29T11:53:13.731Z,85.30
2017-09-29T11:55:41.406Z,85.30
2017-09-29T11:58:09.896Z,84.20
2017-09-29T12:00:37.591Z,84.00
2017-09-29T12:03:05.273Z,83.40
2017-09-29T12:05:33.016Z,82.30
2017-09-29T12:08:00.701Z,82.00
2017-09-29T12:10:28.421Z,84.40
2017-09-29T12:12:56.096Z,85.30
2017-09-29T12:15:23.815Z,83.50
2017-09-29T12:17:52.250Z,81.30
2017-09-29T12:20:19.986Z,81.30
2017-09-29T12:22:47.660Z,81.20
2017-09-29T12:25:16.255Z,81.00
2017-09-29T12:27:43.938Z,81.10
2017-09-29T12:30:11.689Z,82.00
2017-09-29T12:32:39.364Z,84.40
2017-09-29T12:35:07.081Z,83.20
2017-09-29T12:37:34.772Z,83.20
2017-09-29T12:40:02.479Z,81.80
2017-09-29T12:42:30.149Z,82.20
2017-09-29T12:44:57.866Z,84.20
2017-09-29T12:47:25.532Z,82.90
2017-09-29T12:49:54.003Z,82.50
2017-09-29T12:52:21.672Z,82.50
2017-09-29T12:54:50.153Z,82.40
2017-09-29T12:57:18.585Z,83.10
2017-09-29T12:59:46.292Z,83.10
2017-09-29T13:02:14.735Z,82.40
2017-09-29T13:04:42.464Z,82.40
2017-09-29T13:07:10.175Z,84.40
2017-09-29T13:09:37.867Z,83.00
2017-09-29T13:12:05.587Z,79.70
2017-09-29T13:14:33.252Z,81.90
2017-09-29T13:17:00.971Z,81.70
2017-09-29T13:19:29.398Z,81.10
2017-09-29T13:21:57.882Z,78.40
2017-09-29T13:24:26.311Z,77.80
2017-09-29T13:26:54.020Z,77.70
2017-09-29T13:29:22.459Z,78.10
2017-09-29T13:31:50.171Z,78.20
2017-09-29T13:34:18.616Z,77.10
2017-09-29T13:36:46.327Z,76.90
2017-09-29T13:39:14.020Z,77.60
2017-09-29T13:41:41.731Z,77.40
2017-09-29T13:44:09.392Z,77.90
2017-09-29T13:46:37.101Z,78.30
2017-09-29T13:49:04.780Z,78.10
2017-09-29T13:51:32.508Z,78.80
2017-09-29T13:54:00.174Z,78.20
2017-09-29T13:56:27.885Z,78.90
2017-09-29T13:58:56.316Z,78.00
2017-09-29T14:01:24.034Z,78.00
2017-09-29T14:03:51.703Z,76.30
2017-09-29T14:06:19.418Z,77.30
2017-09-29T14:08:47.080Z,77.20
2017-09-29T14:11:14.745Z,78.20
2017-09-29T14:13:42.443Z,76.50
2017-09-29T14:16:10.107Z,76.70
2017-09-29T14:18:37.834Z,76.20
2017-09-29T14:21:06.275Z,77.10
2017-09-29T14:23:33.971Z,77.00
2017-09-29T14:26:02.403Z,76.60
2017-09-29T14:28:30.111Z,76.50
2017-09-29T14:30:58.539Z,76.50
2017-09-29T14:33:26.548Z,76.60
2017-09-29T14:35:54.208Z,75.90
2017-09-29T14:38:22.687Z,78.20
2017-09-29T14:40:51.220Z,79.40
2017-09-29T14:43:19.030Z,79.40
2017-09-29T14:45:47.726Z,77.80
2017-09-29T14:48:16.204Z,78.50
2017-09-29T14:50:44.625Z,80.10
2017-09-29T14:53:12.321Z,80.10
2017-09-29T14:55:40.797Z,80.40
2017-09-29T14:58:08.516Z,80.20
2017-09-29T15:00:36.184Z,80.80
2017-09-29T15:03:03.891Z,80.30
2017-09-29T15:05:32.323Z,80.40
2017-09-29T15:08:00.032Z,80.40
2017-09-29T15:10:28.468Z,79.60
2017-09-29T15:12:56.245Z,79.60
2017-09-29T15:15:23.908Z,80.40
2017-09-29T15:17:51.579Z,80.40
2017-09-29T15:20:19.288Z,80.80
2017-09-29T15:22:46.955Z,82.30
2017-09-29T15:25:14.671Z,82.90
2017-09-29T15:27:43.096Z,83.60
2017-09-29T15:30:10.802Z,83.60
2017-09-29T15:32:39.235Z,83.80
2017-09-29T15:35:06.992Z,83.80
2017-09-29T15:37:34.662Z,84.50
2017-09-29T15:40:02.374Z,84.40
2017-09-29T15:42:30.840Z,86.20
2017-09-29T15:44:59.316Z,85.60
2017-09-29T15:47:27.752Z,85.90
2017-09-29T15:49:55.460Z,85.80
2017-09-29T15:52:23.901Z,86.70
2017-09-29T15:54:51.603Z,86.60
2017-09-29T15:57:20.038Z,86.80
2017-09-29T15:59:48.766Z,86.80
2017-09-29T16:02:17.232Z,87.10
2017-09-29T16:04:45.713Z,88.00
2017-09-29T16:07:14.157Z,87.90
2017-09-29T16:09:41.863Z,87.90
2017-09-29T16:12:10.298Z,88.50
2017-09-29T16:14:38.011Z,88.50
2017-09-29T16:17:05.680Z,88.90
2017-09-29T16:19:33.388Z,89.10
2017-09-29T16:22:01.057Z,89.40
2017-09-29T16:24:28.777Z,89.60
2017-09-29T16:26:56.441Z,90.30
2017-09-29T16:29:24.111Z,90.20
2017-09-29T16:31:51.827Z,90.40
2017-09-29T16:34:19.492Z,90.60
2017-09-29T16:36:47.220Z,90.90
2017-09-29T16:39:14.900Z,91.20
2017-09-29T16:41:42.620Z,91.80
2017-09-29T16:44:10.291Z,91.80
2017-09-29T16:46:38.004Z,92.10
2017-09-29T16:49:05.676Z,92.40
2017-09-29T16:51:33.391Z,92.70
2017-09-29T16:54:01.830Z,93.20
2017-09-29T16:56:29.540Z,93.20
2017-09-29T16:58:57.977Z,93.40
2017-09-29T17:01:25.689Z,93.40
2017-09-29T17:03:53.353Z,93.70
2017-09-29T17:06:21.064Z,93.70
2017-09-29T17:08:48.735Z,93.50
2017-09-29T17:11:16.443Z,93.40
2017-09-29T17:13:44.104Z,93.70
2017-09-29T17:16:11.824Z,93.40
2017-09-29T17:18:40.254Z,93.80
2017-09-29T17:21:07.963Z,93.80
2017-09-29T17:23:36.387Z,94.50
2017-09-29T17:26:04.107Z,94.50
2017-09-29T17:28:32.530Z,95.10
2017-09-29T17:31:00.200Z,95.10
2017-09-29T17:33:27.900Z,95.20
2017-09-29T17:35:56.330Z,95.60
2017-09-29T17:38:24.034Z,95.60
2017-09-29T17:40:52.463Z,95.90
2017-09-29T17:43:20.164Z,95.90
2017-09-29T17:45:47.837Z,95.70
2017-09-29T17:48:16.311Z,95.50
2017-09-29T17:50:44.761Z,95.70
2017-09-29T17:53:12.472Z,95.70
2017-09-29T17:55:40.146Z,95.90
2017-09-29T17:58:07.867Z,96.10
2017-09-29T18:00:36.339Z,96.20
2017-09-29T18:03:04.058Z,96.20
2017-09-29T18:05:31.727Z,96.20
2017-09-29T18:07:59.440Z,95.70
2017-09-29T18:10:27.879Z,95.80
2017-09-29T18:12:55.587Z,95.70
2017-09-29T18:15:23.264Z,95.80
2017-09-29T18:17:50.984Z,96.20
2017-09-29T18:20:19.568Z,96.40
2017-09-29T18:22:48.045Z,96.60
2017-09-29T18:25:16.487Z,96.90
2017-09-29T18:27:44.197Z,96.60
2017-09-29T18:30:12.703Z,96.80
2017-09-29T18:32:40.372Z,96.80
2017-09-29T18:35:08.091Z,97.10
2017-09-29T18:37:36.531Z,97.00
2017-09-29T18:40:04.306Z,97.00
2017-09-29T18:42:31.992Z,97.10
2017-09-29T18:45:00.525Z,96.80
2017-09-29T18:47:28.234Z,96.70
2017-09-29T18:49:56.724Z,97.50
2017-09-29T18:52:24.400Z,97.50
2017-09-29T18:54:52.172Z,98.00
2017-09-29T18:57:19.911Z,98.40
2017-09-29T18:59:47.690Z,98.80
2017-09-29T19:02:15.404Z,99.00
2017-09-29T19:04:43.889Z,99.20
2017-09-29T19:07:12.340Z,99.20
2017-09-29T19:09:40.112Z,99.20
2017-09-29T19:12:07.823Z,99.60
2017-09-29T19:14:35.921Z,99.80
2017-09-29T19:17:03.977Z,99.90
2017-09-29T19:19:32.384Z,99.90
2017-09-29T19:22:00.132Z,99.90
2017-09-29T19:24:27.844Z,99.90
2017-09-29T19:26:55.528Z,99.90
2017-09-29T19:29:23.856Z,99.90
2017-09-29T19:31:52.313Z,99.90
2017-09-29T19:34:20.064Z,99.90
2017-09-29T19:36:47.740Z,99.90
2017-09-29T19:39:15.412Z,99.50
2017-09-29T19:41:43.931Z,98.70
2017-09-29T19:44:11.603Z,98.70
2017-09-29T19:46:39.323Z,98.80
2017-09-29T19:49:07.769Z,98.00
2017-09-29T19:51:35.490Z,98.00
2017-09-29T19:54:03.195Z,98.30
2017-09-29T19:56:30.923Z,98.50
2017-09-29T19:58:58.797Z,98.80
2017-09-29T20:01:26.788Z,98.90
2017-09-29T20:03:54.463Z,98.90
2017-09-29T20:06:22.984Z,98.80
2017-09-29T20:08:50.740Z,98.80
2017-09-29T20:11:18.472Z,98.80
2017-09-29T20:13:46.906Z,99.00
2017-09-29T20:16:14.638Z,98.90
2017-09-29T20:18:42.322Z,98.90
2017-09-29T20:21:10.041Z,98.90
2017-09-29T20:23:37.725Z,99.00
2017-09-29T20:26:05.443Z,99.10
2017-09-29T20:28:33.887Z,99.00
2017-09-29T20:31:01.642Z,99.00
2017-09-29T20:33:29.363Z,99.40
2017-09-29T20:35:57.087Z,99.40
2017-09-29T20:38:25.653Z,98.80
2017-09-29T20:40:53.474Z,98.80
2017-09-29T20:43:21.270Z,98.50
2017-09-29T20:45:49.013Z,98.50
2017-09-29T20:48:16.731Z,98.90
2017-09-29T20:50:45.178Z,98.80
2017-09-29T20:53:12.895Z,98.80
2017-09-29T20:55:40.568Z,99.00
2017-09-29T20:58:08.284Z,99.00
2017-09-29T21:00:35.968Z,99.20
2017-09-29T21:03:03.691Z,99.40
2017-09-29T21:05:31.363Z,99.50
2017-09-29T21:07:59.075Z,99.60
2017-09-29T21:10:26.743Z,99.60
2017-09-29T21:12:54.470Z,99.40
2017-09-29T21:15:22.144Z,99.20
2017-09-29T21:17:49.873Z,99.00
2017-09-29T21:20:18.343Z,99.00
2017-09-29T21:22:46.059Z,99.00
2017-09-29T21:25:13.728Z,99.40
2017-09-29T21:27:41.447Z,99.50
2017-09-29T21:30:09.128Z,99.60
2017-09-29T21:32:37.035Z,99.50
2017-09-29T21:35:04.717Z,99.60
2017-09-29T21:37:33.195Z,99.90
2017-09-29T21:40:01.635Z,99.90
2017-09-29T21:42:29.362Z,99.90
2017-09-29T21:44:57.030Z,99.90
2017-09-29T21:47:24.698Z,99.90
2017-09-29T21:49:52.411Z,99.90
2017-09-29T21:52:20.848Z,99.90
2017-09-29T21:54:48.581Z,99.90
2017-09-29T21:57:16.259Z,99.90
2017-09-29T21:59:43.967Z,99.90
2017-09-29T22:02:12.410Z,99.90
2017-09-29T22:04:40.131Z,99.90
2017-09-29T22:07:07.807Z,99.90
2017-09-29T22:09:35.551Z,99.90
2017-09-29T22:12:03.233Z,99.90
2017-09-29T22:14:30.948Z,99.90
2017-09-29T22:16:59.389Z,99.90
2017-09-29T22:19:27.107Z,99.90
2017-09-29T22:21:54.779Z,99.90
2017-09-29T22:24:22.496Z,99.90
2017-09-29T22:26:50.164Z,99.90
2017-09-29T22:29:18.684Z,99.90
2017-09-29T22:31:46.361Z,99.90
2017-09-29T22:34:14.076Z,99.90
2017-09-29T22:36:42.523Z,99.60
2017-09-29T22:39:10.239Z,99.60
2017-09-29T22:41:37.920Z,99.90
2017-09-29T22:44:05.639Z,99.90
2017-09-29T22:46:34.085Z,99.90
2017-09-29T22:49:01.760Z,99.90
2017-09-29T22:51:30.256Z,99.90
2017-09-29T22:53:58.699Z,99.90
2017-09-29T22:56:26.417Z,99.90
2017-09-29T22:58:54.097Z,99.90
2017-09-29T23:01:21.818Z,99.90
2017-09-29T23:03:49.487Z,99.90
2017-09-29T23:06:17.203Z,99.90
2017-09-29T23:08:44.878Z,99.90
2017-09-29T23:11:13.360Z,99.90
2017-09-29T23:13:41.813Z,99.80
2017-09-29T23:16:09.527Z,99.80
2017-09-29T23:18:37.210Z,99.90
2017-09-29T23:21:04.922Z,99.90
2017-09-29T23:23:33.356Z,99.90
2017-09-29T23:26:01.084Z,99.90
2017-09-29T23:28:28.759Z,99.90
2017-09-29T23:30:56.472Z,99.90
2017-09-29T23:33:24.931Z,99.30
2017-09-29T23:35:52.656Z,99.20
2017-09-29T23:38:20.324Z,99.60
2017-09-29T23:40:48.032Z,99.90
2017-09-29T23:43:16.477Z,99.90
2017-09-29T23:45:44.202Z,99.90
2017-09-29T23:48:11.875Z,99.90
2017-09-29T23:50:39.603Z,99.90
2017-09-29T23:53:08.039Z,99.90
2017-09-29T23:55:35.715Z,99.90
2017-09-29T23:58:03.424Z,99.90
